Cedar Bluffs, NE

10:52 PM CDT on May 23, 2015 (GMT -0500)
APRSWXNET | | Change Station
CLOSE
Current Station
Personal Weather Station
Location: Cedar Bluffs, NE
Elevation: 1246 ft
Nearby Weather Stations

Elev 1246 ft 41.35 °N, 96.58 °W | Updated 2 days ago

Thunderstorm
Thunderstorm
62 °F
Feels Like 62 °F
N
7
Wind Variable Wind from East
Gusts 13 mph

Today
High -- | Low -- °F
--% Chance of Precip.
Yesterday
High -- | Low -- °F
Precip. -- in
6:00 AM 8:45 PM
Waxing Crescent, 35% visible
Pressure 30.02 in
Visibility 10.0 miles
Clouds Scattered Clouds 5000 ft
Mostly Cloudy 7500 ft
Overcast 8500 ft
Dew Point 58 °F
Humidity 89%
Rainfall in
Snow Depth Not available.
UV 0 out of 12
Pollen 6.00 out of 12
Air Quality Not available.
Flu Activity No Activity
METAR KFET 240335Z AUTO 08005KT 10SM SCT050 BKN075 OVC085 17/15 A3002 RMK AO2 T01700151

More Conditions Fewer Conditions

Pressure 30.02 in
Visibility 10.0 miles
Clouds Scattered Clouds 5000 ft
Mostly Cloudy 7500 ft
Overcast 8500 ft
Dew Point 58 °F
Humidity 89%
Rainfall in
Snow Depth Not available.
UV 0 out of 12
Pollen 6.00 out of 12
Air Quality Not available.
Flu Activity No Activity
METAR KFET 240335Z AUTO 08005KT 10SM SCT050 BKN075 OVC085 17/15 A3002 RMK AO2 T01700151

More Conditions Fewer Conditions

10-Day Weather Forecast

Almanac

Astronomy

May. 23, 2015 Rise Set
Actual Time
Civil Twilight
Nautical Twilight
Astronomical Twilight
Moon
Length of Visible Light
Length of Day
Tomorrow will be .
, % of the Moon is Illuminated

Today's Extremes

State Highs State Lows

Community

WunderPhotos

Upload Photos

1,823,678 photos uploaded!

WunderBlogs® & News

Nearby

Air Quality

  Air Quality AQ Index Pollutant
Not available.

Snow Depth

Station Depth Elevation

Earthquake Activity

City Distance Mag. Time & Date
Minimum magnitude displayed is 2.5.

Coastal Water Temperatures

Place Temperature

Stations

Nearby Weather Stations

Station Location Temp. Windchill Dew Point Humidity Wind Precip. Elev Updated Type